Cap Palliser — A8OH4 — position and weather

sailwx.info

Track history (hours):
 
Tides and Currents Weather Stations Pressure Air Temp Water Temp Dewpoint Dewpoint Depression Visibility Wind Speed Wind Dir Waves Ship Positions

Cap Palliser

Last reported at 2018-Jun-24 22:14 UTC. Time now 2018-Jun-25 03:43 UTC.
Position N 27°50' W 115°50'.

Length 170 m; beam 27 m; draft 11.3 m.

Type: Ship (hazmat cat A). MMSI: 636016647.

Date/timePositionNaut miles runAvg speedWind from/ knotsBaromVisibWave heightAir tempDewpointWater temp
2018-Jun-24 22:14N 27°50' W 115°50'5216.2
2018-Jun-24 19:03N 28°31' W 116°25'14015.9
2018-Jun-24 10:15N 30°23' W 118°01'415.5
2018-Jun-24 10:00N 30°26' W 118°03'18915.6
2018-Jun-23 21:54N 32°57' W 120°16'615.9
2018-Jun-23 21:31N 33°02' W 120°21'815.5
2018-Jun-23 21:01N 33°08' W 120°26'815.2
2018-Jun-23 20:28N 33°15' W 120°32'715.1
2018-Jun-23 20:00N 33°21' W 120°37'715.0
2018-Jun-23 19:31N 33°26' W 120°42'815.3
2018-Jun-23 19:00N 33°33' W 120°48'815.7
2018-Jun-23 18:28N 33°39' W 120°54'715.8
2018-Jun-23 18:00N 33°45' W 120°59'915.6
2018-Jun-23 17:24N 33°53' W 121°05'615.3
2018-Jun-23 17:00N 33°59' W 121°08'815.2
2018-Jun-23 16:30N 34°06' W 121°11'815.2
2018-Jun-23 16:00N 34°13' W 121°15'715.1
2018-Jun-23 15:31N 34°20' W 121°18'815.2
2018-Jun-23 15:00N 34°27' W 121°22'714.8
2018-Jun-23 14:31N 34°34' W 121°25'714.8
2018-Jun-23 14:01N 34°41' W 121°29'714.7
2018-Jun-23 13:30N 34°47' W 121°32'714.8
2018-Jun-23 13:00N 34°54' W 121°36'715.0
2018-Jun-23 12:30N 35°01' W 121°39'815.2
2018-Jun-23 12:00N 35°08' W 121°42'815.3
2018-Jun-23 11:30N 35°15' W 121°46'815.5
2018-Jun-23 11:00N 35°22' W 121°50'815.8
2018-Jun-23 10:30N 35°30' W 121°54'815.8
2018-Jun-23 10:01N 35°37' W 121°58'816.3
2018-Jun-23 09:29N 35°45' W 122°02'816.6
2018-Jun-23 08:59N 35°52' W 122°06'816.6
2018-Jun-23 08:30N 35°60' W 122°09'816.3
2018-Jun-23 08:00N 36°07' W 122°13'816.0
2018-Jun-23 07:30N 36°15' W 122°17'815.7
2018-Jun-23 07:00N 36°22' W 122°21'815.2
2018-Jun-23 06:30N 36°29' W 122°24'714.8
2018-Jun-23 06:00N 36°36' W 122°27'814.7
2018-Jun-23 05:30N 36°43' W 122°31'715.4
2018-Jun-23 05:01N 36°50' W 122°34'815.8
2018-Jun-23 04:30N 36°57' W 122°38'815.7
2018-Jun-23 03:59N 37°05' W 122°41'714.1
2018-Jun-23 03:31N 37°12' W 122°44'714.4
2018-Jun-23 03:01N 37°19' W 122°43'714.4
2018-Jun-23 02:30N 37°26' W 122°43'714.4
2018-Jun-23 02:00N 37°33' W 122°43'714.1
2018-Jun-23 01:30N 37°40' W 122°43'613.0
2018-Jun-23 01:00N 37°46' W 122°40'612.5
2018-Jun-23 00:30N 37°48' W 122°32'612.0
2018-Jun-23 00:00N 37°50' W 122°25'510.5
2018-Jun-22 23:30N 37°48' W 122°19'0 0.3
2018-Jun-22 22:56N 37°48' W 122°19'0 0.0
2018-Jun-22 22:29N 37°48' W 122°19'0 0.0
2018-Jun-22 21:59N 37°48' W 122°19'0 0.0
2018-Jun-22 21:28N 37°48' W 122°19'0 0.0
2018-Jun-22 20:58N 37°48' W 122°19'0 0.0
2018-Jun-22 20:28N 37°48' W 122°19'0 0.0
2018-Jun-22 19:59N 37°48' W 122°19'0 0.0
2018-Jun-22 19:29N 37°48' W 122°19'0 0.0
2018-Jun-22 18:58N 37°48' W 122°19'0 0.0
2018-Jun-22 18:28N 37°48' W 122°19'0 0.0
2018-Jun-22 17:56N 37°48' W 122°19'0 0.0
2018-Jun-22 17:26N 37°48' W 122°19'0 0.0
2018-Jun-22 16:56N 37°48' W 122°19'0 0.0
2018-Jun-22 16:26N 37°48' W 122°19'0 0.0
2018-Jun-22 15:55N 37°48' W 122°19'0 0.0
2018-Jun-22 15:28N 37°48' W 122°19'0 0.0
2018-Jun-22 14:59N 37°48' W 122°19'0 0.0
2018-Jun-22 14:29N 37°48' W 122°19'0 0.0
2018-Jun-22 13:58N 37°48' W 122°19'0 0.0
2018-Jun-22 13:25N 37°48' W 122°19'0 0.0
2018-Jun-22 12:56N 37°48' W 122°19'0 0.0
2018-Jun-22 12:29N 37°48' W 122°19'0 0.0
2018-Jun-22 11:58N 37°48' W 122°19'0 0.0
2018-Jun-22 11:29N 37°48' W 122°19'0 0.0
2018-Jun-22 10:58N 37°48' W 122°19'0 0.0
2018-Jun-22 10:28N 37°48' W 122°19'0 0.0
2018-Jun-22 09:59N 37°48' W 122°19'0 0.0
2018-Jun-22 09:29N 37°48' W 122°19'0 0.0
2018-Jun-22 08:58N 37°48' W 122°19'0 0.0
2018-Jun-22 08:28N 37°48' W 122°19'0 0.0
2018-Jun-22 07:59N 37°48' W 122°19'0 0.0
2018-Jun-22 07:28N 37°48' W 122°19'0 0.0
2018-Jun-22 06:58N 37°48' W 122°19'0 0.0
2018-Jun-22 06:29N 37°48' W 122°19'0 0.0
2018-Jun-22 05:58N 37°48' W 122°19'0 0.0
2018-Jun-22 05:28N 37°48' W 122°19'0 0.3
2018-Jun-22 05:00N 37°48' W 122°19'3 6.7
2018-Jun-22 04:30N 37°49' W 122°23'612.4
2018-Jun-22 04:00N 37°48' W 122°31'714.4
2018-Jun-22 03:30N 37°45' W 122°39'4 8.7
2018-Jun-22 03:00N 37°40' W 122°40'611.8
2018-Jun-22 02:30N 37°34' W 122°40'612.4
2018-Jun-22 02:00N 37°28' W 122°39'612.3
2018-Jun-22 01:30N 37°22' W 122°40'612.1
2018-Jun-22 01:00N 37°16' W 122°40'612.8
2018-Jun-22 00:30N 37°09' W 122°39'713.3
2018-Jun-22 00:00N 37°04' W 122°35'612.9
2018-Jun-21 23:30N 36°58' W 122°32'612.7
2018-Jun-21 23:00N 36°52' W 122°30'612.8
2018-Jun-21 22:30N 36°46' W 122°27'612.8
2018-Jun-21 22:00N 36°40' W 122°24'713.4
2018-Jun-21 21:30N 36°33' W 122°21'713.8
2018-Jun-21 21:00N 36°27' W 122°17'714.0
2018-Jun-21 20:30N 36°21' W 122°14'714.0
2018-Jun-21 20:00N 36°14' W 122°10'714.3
2018-Jun-21 19:30N 36°08' W 122°06'713.8
2018-Jun-21 19:00N 36°02' W 122°02'713.4
2018-Jun-21 18:30N 35°56' W 121°57'713.5
2018-Jun-21 18:00N 35°51' W 121°53'714.2
2018-Jun-21 17:30N 35°44' W 121°49'814.3
2018-Jun-21 16:57N 35°37' W 121°44'613.9
2018-Jun-21 16:30N 35°32' W 121°40'714.2
2018-Jun-21 16:00N 35°26' W 121°35'714.5
2018-Jun-21 15:30N 35°20' W 121°31'714.6
2018-Jun-21 15:00N 35°14' W 121°26'714.8
2018-Jun-21 14:30N 35°07' W 121°22'714.8
2018-Jun-21 14:00N 35°01' W 121°17'714.8
2018-Jun-21 13:30N 34°54' W 121°13'714.6
2018-Jun-21 13:00N 34°48' W 121°08'714.5
2018-Jun-21 12:30N 34°42' W 121°03'714.8
2018-Jun-21 12:00N 34°36' W 120°59'815.0
2018-Jun-21 11:30N 34°29' W 120°54'714.3
2018-Jun-21 11:00N 34°25' W 120°47'816.0
2018-Jun-21 10:30N 34°23' W 120°38'816.1
2018-Jun-21 10:00N 34°21' W 120°28'917.3
2018-Jun-21 09:29N 34°19' W 120°18'917.0
2018-Jun-21 08:58N 34°16' W 120°08'816.2
2018-Jun-21 08:28N 34°14' W 119°58'715.7
2018-Jun-21 08:00N 34°12' W 119°50'816.1
2018-Jun-21 07:30N 34°10' W 119°40'816.2
2018-Jun-21 07:00N 34°08' W 119°31'815.8
2018-Jun-21 06:29N 34°06' W 119°21'816.0
2018-Jun-21 05:59N 34°03' W 119°12'816.0
2018-Jun-21 05:30N 33°59' W 119°04'712.8
2018-Jun-21 04:59N 33°56' W 118°57'611.8
2018-Jun-21 04:29N 33°53' W 118°51'611.6
2018-Jun-21 03:58N 33°50' W 118°45'611.5
2018-Jun-21 03:29N 33°47' W 118°39'611.7
2018-Jun-21 03:00N 33°44' W 118°33'611.0
2018-Jun-21 02:30N 33°41' W 118°27'510.5
2018-Jun-21 02:00N 33°39' W 118°22'510.4
2018-Jun-21 01:30N 33°39' W 118°16'5 9.2
2018-Jun-21 01:00N 33°42' W 118°12'4 7.3
2018-Jun-21 00:30N 33°45' W 118°13'1 2.4
2018-Jun-21 00:00N 33°46' W 118°14'0 0.0
2018-Jun-20 23:30N 33°46' W 118°14'0 0.0
2018-Jun-20 22:57N 33°46' W 118°14'0 0.0
2018-Jun-20 22:30N 33°46' W 118°14'0 0.0
2018-Jun-20 22:00N 33°46' W 118°14'0 0.0
2018-Jun-20 21:30N 33°46' W 118°14'0 0.0
2018-Jun-20 21:00N 33°46' W 118°14'0 0.0
2018-Jun-20 20:30N 33°46' W 118°14'0 0.0
2018-Jun-20 20:00N 33°46' W 118°14'0 0.0
2018-Jun-20 19:30N 33°46' W 118°14'0 0.0
2018-Jun-20 19:00N 33°46' W 118°14'0 0.0
2018-Jun-20 18:30N 33°46' W 118°14'0 0.0
2018-Jun-20 18:00N 33°46' W 118°14'0 0.0
2018-Jun-20 17:30N 33°46' W 118°14'0 0.0
2018-Jun-20 17:00N 33°46' W 118°14'0 0.0
2018-Jun-20 16:30N 33°46' W 118°14'0 0.0
2018-Jun-20 16:00N 33°46' W 118°14'0 0.0
2018-Jun-20 15:30N 33°46' W 118°14'0 0.0
2018-Jun-20 15:00N 33°46' W 118°14'0 0.0
2018-Jun-20 14:30N 33°46' W 118°14'0 0.0
2018-Jun-20 14:00N 33°46' W 118°14'0 0.0
2018-Jun-20 13:30N 33°46' W 118°14'0 0.6
2018-Jun-20 13:00N 33°46' W 118°14'1 2.4
2018-Jun-20 12:30N 33°45' W 118°13'4 7.3
2018-Jun-20 12:00N 33°42' W 118°11'4 8.4
2018-Jun-20 11:30N 33°38' W 118°10'510.8
2018-Jun-20 11:00N 33°33' W 118°09'811.0
2018-Jun-20 10:15N 33°25' W 118°05'511.1
2018-Jun-20 09:47N 33°20' W 118°03'311.1
2018-Jun-20 09:30N 33°17' W 118°02'611.4
2018-Jun-20 09:00N 33°12' W 117°59'510.9
2018-Jun-20 08:31N 33°07' W 117°57'714.0
2018-Jun-20 08:01N 33°00' W 117°54'815.0
2018-Jun-20 07:30N 32°53' W 117°51'815.2
2018-Jun-20 07:00N 32°46' W 117°48'815.1
2018-Jun-20 06:30N 32°39' W 117°45'715.0
2018-Jun-20 06:00N 32°32' W 117°42'815.0
2018-Jun-20 05:30N 32°25' W 117°39'815.1
2018-Jun-20 05:00N 32°17' W 117°36'1015.3
2018-Jun-20 04:21N 32°08' W 117°32'  
Track history (hours):
 
Tides and Currents Weather Stations Pressure Air Temp Water Temp Dewpoint Dewpoint Depression Visibility Wind Speed Wind Dir Waves Ship Positions

Cap Palliser

Last reported at 2018-Jun-24 22:14 UTC. Time now 2018-Jun-25 03:43 UTC.
Position N 27°50' W 115°50'.

Length 170 m; beam 27 m; draft 11.3 m.

Type: Ship (hazmat cat A). MMSI: 636016647.

Date/timePositionNaut miles runAvg speedWind from/ knotsBaromVisibWave heightAir tempDewpointWater temp
2018-Jun-24 22:14N 27°50' W 115°50'5216.2
2018-Jun-24 19:03N 28°31' W 116°25'14015.9
2018-Jun-24 10:15N 30°23' W 118°01'415.5
2018-Jun-24 10:00N 30°26' W 118°03'18915.6
2018-Jun-23 21:54N 32°57' W 120°16'615.9
2018-Jun-23 21:31N 33°02' W 120°21'815.5
2018-Jun-23 21:01N 33°08' W 120°26'815.2
2018-Jun-23 20:28N 33°15' W 120°32'715.1
2018-Jun-23 20:00N 33°21' W 120°37'715.0
2018-Jun-23 19:31N 33°26' W 120°42'815.3
2018-Jun-23 19:00N 33°33' W 120°48'815.7
2018-Jun-23 18:28N 33°39' W 120°54'715.8
2018-Jun-23 18:00N 33°45' W 120°59'915.6
2018-Jun-23 17:24N 33°53' W 121°05'615.3
2018-Jun-23 17:00N 33°59' W 121°08'815.2
2018-Jun-23 16:30N 34°06' W 121°11'815.2
2018-Jun-23 16:00N 34°13' W 121°15'715.1
2018-Jun-23 15:31N 34°20' W 121°18'815.2
2018-Jun-23 15:00N 34°27' W 121°22'714.8
2018-Jun-23 14:31N 34°34' W 121°25'714.8
2018-Jun-23 14:01N 34°41' W 121°29'714.7
2018-Jun-23 13:30N 34°47' W 121°32'714.8
2018-Jun-23 13:00N 34°54' W 121°36'715.0
2018-Jun-23 12:30N 35°01' W 121°39'815.2
2018-Jun-23 12:00N 35°08' W 121°42'815.3
2018-Jun-23 11:30N 35°15' W 121°46'815.5
2018-Jun-23 11:00N 35°22' W 121°50'815.8
2018-Jun-23 10:30N 35°30' W 121°54'815.8
2018-Jun-23 10:01N 35°37' W 121°58'816.3
2018-Jun-23 09:29N 35°45' W 122°02'816.6
2018-Jun-23 08:59N 35°52' W 122°06'816.6
2018-Jun-23 08:30N 35°60' W 122°09'816.3
2018-Jun-23 08:00N 36°07' W 122°13'816.0
2018-Jun-23 07:30N 36°15' W 122°17'815.7
2018-Jun-23 07:00N 36°22' W 122°21'815.2
2018-Jun-23 06:30N 36°29' W 122°24'714.8
2018-Jun-23 06:00N 36°36' W 122°27'814.7
2018-Jun-23 05:30N 36°43' W 122°31'715.4
2018-Jun-23 05:01N 36°50' W 122°34'815.8
2018-Jun-23 04:30N 36°57' W 122°38'815.7
2018-Jun-23 03:59N 37°05' W 122°41'714.1
2018-Jun-23 03:31N 37°12' W 122°44'714.4
2018-Jun-23 03:01N 37°19' W 122°43'714.4
2018-Jun-23 02:30N 37°26' W 122°43'714.4
2018-Jun-23 02:00N 37°33' W 122°43'714.1
2018-Jun-23 01:30N 37°40' W 122°43'613.0
2018-Jun-23 01:00N 37°46' W 122°40'612.5
2018-Jun-23 00:30N 37°48' W 122°32'612.0
2018-Jun-23 00:00N 37°50' W 122°25'510.5
2018-Jun-22 23:30N 37°48' W 122°19'0 0.3
2018-Jun-22 22:56N 37°48' W 122°19'0 0.0
2018-Jun-22 22:29N 37°48' W 122°19'0 0.0
2018-Jun-22 21:59N 37°48' W 122°19'0 0.0
2018-Jun-22 21:28N 37°48' W 122°19'0 0.0
2018-Jun-22 20:58N 37°48' W 122°19'0 0.0
2018-Jun-22 20:28N 37°48' W 122°19'0 0.0
2018-Jun-22 19:59N 37°48' W 122°19'0 0.0
2018-Jun-22 19:29N 37°48' W 122°19'0 0.0
2018-Jun-22 18:58N 37°48' W 122°19'0 0.0
2018-Jun-22 18:28N 37°48' W 122°19'0 0.0
2018-Jun-22 17:56N 37°48' W 122°19'0 0.0
2018-Jun-22 17:26N 37°48' W 122°19'0 0.0
2018-Jun-22 16:56N 37°48' W 122°19'0 0.0
2018-Jun-22 16:26N 37°48' W 122°19'0 0.0
2018-Jun-22 15:55N 37°48' W 122°19'0 0.0
2018-Jun-22 15:28N 37°48' W 122°19'0 0.0
2018-Jun-22 14:59N 37°48' W 122°19'0 0.0
2018-Jun-22 14:29N 37°48' W 122°19'0 0.0
2018-Jun-22 13:58N 37°48' W 122°19'0 0.0
2018-Jun-22 13:25N 37°48' W 122°19'0 0.0
2018-Jun-22 12:56N 37°48' W 122°19'0 0.0
2018-Jun-22 12:29N 37°48' W 122°19'0 0.0
2018-Jun-22 11:58N 37°48' W 122°19'0 0.0
2018-Jun-22 11:29N 37°48' W 122°19'0 0.0
2018-Jun-22 10:58N 37°48' W 122°19'0 0.0
2018-Jun-22 10:28N 37°48' W 122°19'0 0.0
2018-Jun-22 09:59N 37°48' W 122°19'0 0.0
2018-Jun-22 09:29N 37°48' W 122°19'0 0.0
2018-Jun-22 08:58N 37°48' W 122°19'0 0.0
2018-Jun-22 08:28N 37°48' W 122°19'0 0.0
2018-Jun-22 07:59N 37°48' W 122°19'0 0.0
2018-Jun-22 07:28N 37°48' W 122°19'0 0.0
2018-Jun-22 06:58N 37°48' W 122°19'0 0.0
2018-Jun-22 06:29N 37°48' W 122°19'0 0.0
2018-Jun-22 05:58N 37°48' W 122°19'0 0.0
2018-Jun-22 05:28N 37°48' W 122°19'0 0.3
2018-Jun-22 05:00N 37°48' W 122°19'3 6.7
2018-Jun-22 04:30N 37°49' W 122°23'612.4
2018-Jun-22 04:00N 37°48' W 122°31'714.4
2018-Jun-22 03:30N 37°45' W 122°39'4 8.7
2018-Jun-22 03:00N 37°40' W 122°40'611.8
2018-Jun-22 02:30N 37°34' W 122°40'612.4
2018-Jun-22 02:00N 37°28' W 122°39'612.3
2018-Jun-22 01:30N 37°22' W 122°40'612.1
2018-Jun-22 01:00N 37°16' W 122°40'612.8
2018-Jun-22 00:30N 37°09' W 122°39'713.3
2018-Jun-22 00:00N 37°04' W 122°35'612.9
2018-Jun-21 23:30N 36°58' W 122°32'612.7
2018-Jun-21 23:00N 36°52' W 122°30'612.8
2018-Jun-21 22:30N 36°46' W 122°27'612.8
2018-Jun-21 22:00N 36°40' W 122°24'713.4
2018-Jun-21 21:30N 36°33' W 122°21'713.8
2018-Jun-21 21:00N 36°27' W 122°17'714.0
2018-Jun-21 20:30N 36°21' W 122°14'714.0
2018-Jun-21 20:00N 36°14' W 122°10'714.3
2018-Jun-21 19:30N 36°08' W 122°06'713.8
2018-Jun-21 19:00N 36°02' W 122°02'713.4
2018-Jun-21 18:30N 35°56' W 121°57'713.5
2018-Jun-21 18:00N 35°51' W 121°53'714.2
2018-Jun-21 17:30N 35°44' W 121°49'814.3
2018-Jun-21 16:57N 35°37' W 121°44'613.9
2018-Jun-21 16:30N 35°32' W 121°40'714.2
2018-Jun-21 16:00N 35°26' W 121°35'714.5
2018-Jun-21 15:30N 35°20' W 121°31'714.6
2018-Jun-21 15:00N 35°14' W 121°26'714.8
2018-Jun-21 14:30N 35°07' W 121°22'714.8
2018-Jun-21 14:00N 35°01' W 121°17'714.8
2018-Jun-21 13:30N 34°54' W 121°13'714.6
2018-Jun-21 13:00N 34°48' W 121°08'714.5
2018-Jun-21 12:30N 34°42' W 121°03'714.8
2018-Jun-21 12:00N 34°36' W 120°59'815.0
2018-Jun-21 11:30N 34°29' W 120°54'714.3
2018-Jun-21 11:00N 34°25' W 120°47'816.0
2018-Jun-21 10:30N 34°23' W 120°38'816.1
2018-Jun-21 10:00N 34°21' W 120°28'917.3
2018-Jun-21 09:29N 34°19' W 120°18'917.0
2018-Jun-21 08:58N 34°16' W 120°08'816.2
2018-Jun-21 08:28N 34°14' W 119°58'715.7
2018-Jun-21 08:00N 34°12' W 119°50'816.1
2018-Jun-21 07:30N 34°10' W 119°40'816.2
2018-Jun-21 07:00N 34°08' W 119°31'815.8
2018-Jun-21 06:29N 34°06' W 119°21'816.0
2018-Jun-21 05:59N 34°03' W 119°12'816.0
2018-Jun-21 05:30N 33°59' W 119°04'712.8
2018-Jun-21 04:59N 33°56' W 118°57'611.8
2018-Jun-21 04:29N 33°53' W 118°51'611.6
2018-Jun-21 03:58N 33°50' W 118°45'611.5
2018-Jun-21 03:29N 33°47' W 118°39'611.7
2018-Jun-21 03:00N 33°44' W 118°33'611.0
2018-Jun-21 02:30N 33°41' W 118°27'510.5
2018-Jun-21 02:00N 33°39' W 118°22'510.4
2018-Jun-21 01:30N 33°39' W 118°16'5 9.2
2018-Jun-21 01:00N 33°42' W 118°12'4 7.3
2018-Jun-21 00:30N 33°45' W 118°13'1 2.4
2018-Jun-21 00:00N 33°46' W 118°14'0 0.0
2018-Jun-20 23:30N 33°46' W 118°14'0 0.0
2018-Jun-20 22:57N 33°46' W 118°14'0 0.0
2018-Jun-20 22:30N 33°46' W 118°14'0 0.0
2018-Jun-20 22:00N 33°46' W 118°14'0 0.0
2018-Jun-20 21:30N 33°46' W 118°14'0 0.0
2018-Jun-20 21:00N 33°46' W 118°14'0 0.0
2018-Jun-20 20:30N 33°46' W 118°14'0 0.0
2018-Jun-20 20:00N 33°46' W 118°14'0 0.0
2018-Jun-20 19:30N 33°46' W 118°14'0 0.0
2018-Jun-20 19:00N 33°46' W 118°14'0 0.0
2018-Jun-20 18:30N 33°46' W 118°14'0 0.0
2018-Jun-20 18:00N 33°46' W 118°14'0 0.0
2018-Jun-20 17:30N 33°46' W 118°14'0 0.0
2018-Jun-20 17:00N 33°46' W 118°14'0 0.0
2018-Jun-20 16:30N 33°46' W 118°14'0 0.0
2018-Jun-20 16:00N 33°46' W 118°14'0 0.0
2018-Jun-20 15:30N 33°46' W 118°14'0 0.0
2018-Jun-20 15:00N 33°46' W 118°14'0 0.0
2018-Jun-20 14:30N 33°46' W 118°14'0 0.0
2018-Jun-20 14:00N 33°46' W 118°14'0 0.0
2018-Jun-20 13:30N 33°46' W 118°14'0 0.6
2018-Jun-20 13:00N 33°46' W 118°14'1 2.4
2018-Jun-20 12:30N 33°45' W 118°13'4 7.3
2018-Jun-20 12:00N 33°42' W 118°11'4 8.4
2018-Jun-20 11:30N 33°38' W 118°10'510.8
2018-Jun-20 11:00N 33°33' W 118°09'811.0
2018-Jun-20 10:15N 33°25' W 118°05'511.1
2018-Jun-20 09:47N 33°20' W 118°03'311.1
2018-Jun-20 09:30N 33°17' W 118°02'611.4
2018-Jun-20 09:00N 33°12' W 117°59'510.9
2018-Jun-20 08:31N 33°07' W 117°57'714.0
2018-Jun-20 08:01N 33°00' W 117°54'815.0
2018-Jun-20 07:30N 32°53' W 117°51'815.2
2018-Jun-20 07:00N 32°46' W 117°48'815.1
2018-Jun-20 06:30N 32°39' W 117°45'715.0
2018-Jun-20 06:00N 32°32' W 117°42'815.0
2018-Jun-20 05:30N 32°25' W 117°39'815.1
2018-Jun-20 05:00N 32°17' W 117°36'1015.3
2018-Jun-20 04:21N 32°08' W 117°32'  

Dump ship's entire track history